createdAt,value
2019-03-25T00:02:42.400Z,14.93
2019-03-25T00:06:48.261Z,12.87
2019-03-25T00:10:54.046Z,13.97
2019-03-25T00:14:59.792Z,13.93
2019-03-25T00:19:05.486Z,14.63
2019-03-25T00:23:11.188Z,11.60
2019-03-25T00:27:16.889Z,13.20
2019-03-25T00:31:24.338Z,12.87
2019-03-25T00:35:30.016Z,12.47
2019-03-25T00:39:35.713Z,12.50
2019-03-25T00:43:41.420Z,10.43
2019-03-25T00:47:47.126Z,9.13
2019-03-25T00:51:52.811Z,9.73
2019-03-25T00:55:58.495Z,11.27
2019-03-25T01:00:05.717Z,9.53
2019-03-25T01:04:11.555Z,11.33
2019-03-25T01:08:17.269Z,9.83
2019-03-25T01:12:23.124Z,8.63
2019-03-25T01:16:28.808Z,7.00
2019-03-25T01:20:35.802Z,6.10
2019-03-25T01:24:41.488Z,5.77
2019-03-25T01:28:47.188Z,5.27
2019-03-25T01:32:52.885Z,5.50
2019-03-25T01:36:58.571Z,5.20
2019-03-25T01:41:05.336Z,5.30
2019-03-25T01:45:11.307Z,5.83
2019-03-25T01:49:17.064Z,5.57
2019-03-25T01:53:23.259Z,6.07
2019-03-25T01:57:28.933Z,5.77
2019-03-25T02:01:34.620Z,6.40
2019-03-25T02:05:40.320Z,6.30
2019-03-25T02:09:46.180Z,6.30
2019-03-25T02:13:51.955Z,5.10
2019-03-25T02:17:57.925Z,5.70
2019-03-25T02:22:03.782Z,5.63
2019-03-25T02:26:09.473Z,5.20
2019-03-25T02:30:15.910Z,5.20
2019-03-25T02:34:21.769Z,5.13
2019-03-25T02:38:27.513Z,4.40
2019-03-25T02:42:33.288Z,3.90
2019-03-25T02:46:38.986Z,4.00
2019-03-25T02:50:44.684Z,3.93
2019-03-25T02:54:50.360Z,3.83
2019-03-25T02:58:56.045Z,3.50
2019-03-25T03:03:01.991Z,3.70
2019-03-25T03:07:07.696Z,3.30
2019-03-25T03:11:13.451Z,4.13
2019-03-25T03:15:19.354Z,3.62
2019-03-25T03:19:25.011Z,3.80
2019-03-25T03:23:30.702Z,3.23
2019-03-25T03:27:36.418Z,3.60
2019-03-25T03:31:42.103Z,3.30
2019-03-25T03:35:47.775Z,3.30
2019-03-25T03:39:53.481Z,3.00
2019-03-25T03:44:01.094Z,3.30
2019-03-25T03:48:07.024Z,2.80
2019-03-25T03:52:13.000Z,3.30
2019-03-25T03:56:19.188Z,3.23
2019-03-25T04:00:33.698Z,3.60
2019-03-25T04:04:39.390Z,3.00
2019-03-25T04:08:45.091Z,3.10
2019-03-25T04:12:50.751Z,3.27
2019-03-25T04:16:56.448Z,3.30
2019-03-25T04:21:03.433Z,3.90
2019-03-25T04:25:09.295Z,3.03
2019-03-25T04:29:15.153Z,4.03
2019-03-25T04:33:20.822Z,3.70
2019-03-25T04:37:26.538Z,4.00
2019-03-25T04:41:32.245Z,3.60
2019-03-25T04:45:37.940Z,3.90
2019-03-25T04:49:43.755Z,4.00
2019-03-25T04:53:49.427Z,4.13
2019-03-25T04:57:56.195Z,4.60
2019-03-25T05:02:02.240Z,4.23
2019-03-25T05:06:08.021Z,4.40
2019-03-25T05:10:13.972Z,4.23
2019-03-25T05:14:19.639Z,4.10
2019-03-25T05:18:25.333Z,4.10
2019-03-25T05:22:31.034Z,4.10
2019-03-25T05:26:36.726Z,4.63
2019-03-25T05:30:42.403Z,4.33
2019-03-25T05:34:48.127Z,4.50
2019-03-25T05:38:53.812Z,4.07
2019-03-25T05:43:00.107Z,4.72
2019-03-25T05:47:05.810Z,4.20
2019-03-25T05:51:11.539Z,4.40
2019-03-25T05:55:17.258Z,4.78
2019-03-25T05:59:22.959Z,4.73
2019-03-25T06:03:28.652Z,4.60
2019-03-25T06:07:34.413Z,4.50
2019-03-25T06:11:40.091Z,4.40
2019-03-25T06:15:45.798Z,4.50
2019-03-25T06:19:51.492Z,4.73
2019-03-25T06:23:57.189Z,4.40
2019-03-25T06:28:04.255Z,4.43
2019-03-25T06:32:10.418Z,4.90
2019-03-25T06:36:16.101Z,4.63
2019-03-25T06:40:21.802Z,4.90
2019-03-25T06:44:27.498Z,4.13
2019-03-25T06:48:33.195Z,4.97
2019-03-25T06:52:38.896Z,4.63
2019-03-25T06:56:44.743Z,4.30
2019-03-25T07:00:50.446Z,4.63
2019-03-25T07:04:56.208Z,4.70
2019-03-25T07:09:02.274Z,4.47
2019-03-25T07:13:08.301Z,4.50
2019-03-25T07:17:14.013Z,5.03
2019-03-25T07:21:20.634Z,4.50
2019-03-25T07:25:26.493Z,4.93
2019-03-25T07:29:32.185Z,5.23
2019-03-25T07:33:37.890Z,5.03
2019-03-25T07:37:43.592Z,4.60
2019-03-25T07:41:49.319Z,5.03
2019-03-25T07:45:55.005Z,4.87
2019-03-25T07:50:01.119Z,5.17
2019-03-25T07:54:06.907Z,5.10
2019-03-25T07:58:12.597Z,4.40
2019-03-25T08:02:18.296Z,4.97
2019-03-25T08:06:27.119Z,4.13
2019-03-25T08:10:35.842Z,4.93
2019-03-25T08:14:41.515Z,4.23
2019-03-25T08:18:48.189Z,4.00
2019-03-25T08:22:53.895Z,4.50
2019-03-25T08:26:59.897Z,3.57
2019-03-25T08:31:05.798Z,3.77
2019-03-25T08:35:12.011Z,3.63
2019-03-25T08:39:21.850Z,3.70
2019-03-25T08:43:27.574Z,3.80
2019-03-25T08:47:33.273Z,3.12
2019-03-25T08:51:38.964Z,3.00
2019-03-25T08:55:44.823Z,2.50
2019-03-25T08:59:50.511Z,2.50
2019-03-25T09:03:56.218Z,2.07
2019-03-25T09:08:02.275Z,2.20
2019-03-25T09:12:07.994Z,2.13
2019-03-25T09:16:13.697Z,2.10
2019-03-25T09:20:20.760Z,2.12
2019-03-25T09:24:26.451Z,2.20
2019-03-25T09:28:32.298Z,2.20
2019-03-25T09:32:38.062Z,2.10
2019-03-25T09:36:43.841Z,2.20
2019-03-25T09:40:49.715Z,2.37
2019-03-25T09:44:55.384Z,2.40
2019-03-25T09:49:01.389Z,6.77
2019-03-25T09:53:07.149Z,2.67
2019-03-25T09:57:12.842Z,2.80
2019-03-25T10:01:18.956Z,2.63
2019-03-25T10:05:24.634Z,2.77
2019-03-25T10:09:30.312Z,3.20
2019-03-25T10:13:36.198Z,2.93
2019-03-25T10:17:42.073Z,2.13
2019-03-25T10:21:47.765Z,2.90
2019-03-25T10:25:53.444Z,3.03
2019-03-25T10:29:59.193Z,2.67
2019-03-25T10:34:04.979Z,2.70
2019-03-25T10:38:19.566Z,3.40
2019-03-25T10:42:19.633Z,3.17
2019-03-25T10:46:25.320Z,2.60
2019-03-25T10:50:31.099Z,3.30
2019-03-25T10:54:36.899Z,3.00
2019-03-25T10:58:42.582Z,3.33
2019-03-25T11:07:05.929Z,2.97
2019-03-25T11:11:11.672Z,3.47
2019-03-25T11:15:18.870Z,3.73
2019-03-25T11:19:24.544Z,3.83
2019-03-25T11:23:30.237Z,3.13
2019-03-25T11:27:35.933Z,4.03
2019-03-25T11:31:41.635Z,3.67
2019-03-25T11:35:47.591Z,3.83
2019-03-25T11:39:53.268Z,5.17
2019-03-25T11:43:59.019Z,5.27
2019-03-25T11:48:05.110Z,3.60
2019-03-25T11:52:10.923Z,3.40
2019-03-25T11:56:16.742Z,3.33
2019-03-25T12:00:23.419Z,3.13
2019-03-25T12:04:29.069Z,3.33
2019-03-25T12:08:34.833Z,14.30
2019-03-25T12:12:40.648Z,3.77
2019-03-25T12:16:46.458Z,3.40
2019-03-25T12:20:52.283Z,2.80
2019-03-25T12:24:57.999Z,2.80
2019-03-25T12:29:03.841Z,2.20
2019-03-25T12:33:09.631Z,4.80
2019-03-25T12:37:15.331Z,2.87
2019-03-25T12:41:21.010Z,2.80
2019-03-25T12:45:28.411Z,2.80
2019-03-25T12:49:34.289Z,3.57
2019-03-25T12:53:39.978Z,3.17
2019-03-25T12:57:45.753Z,2.83
2019-03-25T13:01:53.253Z,2.30
2019-03-25T13:05:58.820Z,2.93
2019-03-25T13:10:06.140Z,2.90
2019-03-25T13:14:11.968Z,2.67
2019-03-25T13:18:17.674Z,3.10
2019-03-25T13:22:23.363Z,3.10
2019-03-25T13:26:29.058Z,2.80
2019-03-25T13:30:34.893Z,3.20
2019-03-25T13:34:40.668Z,2.80
2019-03-25T13:38:46.366Z,2.90
2019-03-25T13:42:52.044Z,2.73
2019-03-25T13:46:57.792Z,2.73
2019-03-25T13:51:03.679Z,2.70
2019-03-25T13:55:09.563Z,2.57
2019-03-25T13:59:15.275Z,2.20
2019-03-25T14:03:20.958Z,1.83
2019-03-25T14:07:26.654Z,1.60
2019-03-25T14:11:32.363Z,1.53
2019-03-25T14:15:38.038Z,1.60
2019-03-25T14:19:43.741Z,1.63
2019-03-25T14:23:50.391Z,1.97
2019-03-25T14:27:56.080Z,1.30
2019-03-25T14:32:02.243Z,1.50
2019-03-25T14:36:07.991Z,1.37
2019-03-25T14:40:14.408Z,1.50
2019-03-25T14:44:20.097Z,1.73
2019-03-25T14:48:25.866Z,1.50
2019-03-25T14:52:31.632Z,1.40
2019-03-25T14:56:37.324Z,1.47
2019-03-25T15:00:43.029Z,1.20
2019-03-25T15:04:49.658Z,1.40
2019-03-25T15:08:55.362Z,1.40
2019-03-25T15:13:01.160Z,1.20
2019-03-25T15:17:08.585Z,1.30
2019-03-25T15:21:14.265Z,1.23
2019-03-25T15:25:19.972Z,1.20
2019-03-25T15:29:25.694Z,1.43
2019-03-25T15:33:32.354Z,1.47
2019-03-25T15:37:38.205Z,1.23
2019-03-25T15:41:43.965Z,1.07
2019-03-25T15:45:51.949Z,1.10
2019-03-25T15:49:57.059Z,1.70
2019-03-25T15:54:02.768Z,1.10
2019-03-25T15:58:08.442Z,1.53
2019-03-25T16:02:14.271Z,1.13
2019-03-25T16:06:22.320Z,1.77
2019-03-25T16:10:27.389Z,1.73
2019-03-25T16:14:33.073Z,1.30
2019-03-25T16:18:40.772Z,1.77
2019-03-25T16:22:46.602Z,1.23
2019-03-25T16:26:52.530Z,1.50
2019-03-25T16:30:59.282Z,1.00
2019-03-25T16:35:07.349Z,1.07
2019-03-25T16:39:13.107Z,1.00
2019-03-25T16:43:18.870Z,0.80
2019-03-25T16:47:24.577Z,1.07
2019-03-25T16:51:30.272Z,1.00
2019-03-25T16:55:36.156Z,1.33
2019-03-25T16:59:41.834Z,1.20
2019-03-25T17:03:47.616Z,1.47
2019-03-25T17:08:17.327Z,0.93
2019-03-25T17:12:23.054Z,1.40
2019-03-25T17:16:28.759Z,1.63
2019-03-25T17:20:34.469Z,1.10
2019-03-25T17:24:40.171Z,1.03
2019-03-25T17:28:45.877Z,1.30
2019-03-25T17:32:51.700Z,1.40
2019-03-25T17:36:59.798Z,1.47
2019-03-25T17:41:05.495Z,1.33
2019-03-25T17:45:13.352Z,1.47
2019-03-25T17:49:19.118Z,1.10
2019-03-25T17:53:24.780Z,1.00
2019-03-25T17:57:30.469Z,0.60
2019-03-25T18:01:36.183Z,1.00
2019-03-25T18:05:42.014Z,1.07
2019-03-25T18:09:47.687Z,1.03
2019-03-25T18:13:55.171Z,1.13
2019-03-25T18:18:00.872Z,1.10
2019-03-25T18:22:06.662Z,1.10
2019-03-25T18:26:12.418Z,1.67
2019-03-25T18:35:43.994Z,1.27
2019-03-25T18:39:49.753Z,1.20
2019-03-25T18:43:55.772Z,1.20
2019-03-25T18:48:01.638Z,1.10
2019-03-25T18:52:07.333Z,1.20
2019-03-25T18:56:13.177Z,1.23
2019-03-25T19:00:33.379Z,1.10
2019-03-25T19:04:39.146Z,1.80
2019-03-25T19:08:45.487Z,1.10
2019-03-25T19:12:51.199Z,1.30
2019-03-25T19:16:57.321Z,0.87
2019-03-25T19:21:03.146Z,2.27
2019-03-25T19:25:08.916Z,1.30
2019-03-25T19:29:14.896Z,1.30
2019-03-25T19:33:20.600Z,1.73
2019-03-25T19:37:26.282Z,1.27
2019-03-25T19:41:32.822Z,2.10
2019-03-25T19:45:38.854Z,1.40
2019-03-25T19:49:44.612Z,1.50
2019-03-25T19:53:50.783Z,1.20
2019-03-25T19:57:56.646Z,1.23
2019-03-25T20:02:02.478Z,1.03
2019-03-25T20:06:08.387Z,1.00
2019-03-25T20:10:35.280Z,1.00
2019-03-25T20:14:41.154Z,1.70
2019-03-25T20:18:46.806Z,1.30
2019-03-25T20:22:52.814Z,1.03
2019-03-25T20:27:00.198Z,0.80
2019-03-25T20:31:06.119Z,0.80
2019-03-25T20:35:12.039Z,0.73
2019-03-25T20:39:17.999Z,0.80
2019-03-25T20:43:23.763Z,1.00
2019-03-25T20:47:29.537Z,0.93
2019-03-25T20:51:35.285Z,1.00
2019-03-25T20:55:41.048Z,3.43
2019-03-25T20:59:46.749Z,1.10
2019-03-25T21:03:52.551Z,1.27
2019-03-25T21:07:59.911Z,1.10
2019-03-25T21:12:05.825Z,1.50
2019-03-25T21:16:11.519Z,1.30
2019-03-25T21:20:17.424Z,1.50
2019-03-25T21:24:23.257Z,1.33
2019-03-25T21:29:17.150Z,1.20
2019-03-25T21:33:22.918Z,1.40
2019-03-25T21:37:28.636Z,1.40
2019-03-25T21:41:34.318Z,1.60
2019-03-25T21:45:40.115Z,1.80
2019-03-25T21:50:18.791Z,2.40
2019-03-25T21:54:24.492Z,3.13
2019-03-25T21:58:30.165Z,3.60
2019-03-25T22:07:19.639Z,4.00
2019-03-25T22:11:25.407Z,9.70
2019-03-25T22:15:31.143Z,8.25
2019-03-25T22:19:36.903Z,3.23
2019-03-25T22:24:18.809Z,5.03
2019-03-25T22:28:24.539Z,5.30
2019-03-25T22:32:30.312Z,5.15
2019-03-25T22:36:36.086Z,3.73
2019-03-25T22:40:41.747Z,4.90
2019-03-25T22:49:19.904Z,5.77
2019-03-25T22:53:25.601Z,4.80
2019-03-25T22:57:31.285Z,5.83
2019-03-25T23:01:37.025Z,4.50
2019-03-25T23:05:42.784Z,2.90
2019-03-25T23:09:48.493Z,4.87
2019-03-25T23:13:55.614Z,5.60
2019-03-25T23:18:01.321Z,4.93
2019-03-25T23:22:07.023Z,4.93
2019-03-25T23:26:12.727Z,4.77
2019-03-25T23:30:18.557Z,5.37
2019-03-25T23:34:24.259Z,5.67
2019-03-25T23:38:30.915Z,6.17
2019-03-25T23:42:36.588Z,4.73
2019-03-25T23:46:42.379Z,4.10
2019-03-25T23:50:48.083Z,3.30
2019-03-25T23:54:53.987Z,4.10
2019-03-25T23:58:59.710Z,5.10
